sensor_id;sensor_type;location;lat;lon;timestamp;temperature;humidity
18690;DHT22;9782;52.930;15.562;2022-09-23T00:00:33;6.20;99.90
18690;DHT22;9782;52.930;15.562;2022-09-23T00:03:02;6.20;99.90
18690;DHT22;9782;52.930;15.562;2022-09-23T00:05:30;6.20;1.00
18690;DHT22;9782;52.930;15.562;2022-09-23T00:07:57;6.20;1.00
18690;DHT22;9782;52.930;15.562;2022-09-23T00:10:25;6.00;1.00
18690;DHT22;9782;52.930;15.562;2022-09-23T00:12:53;5.90;99.90
18690;DHT22;9782;52.930;15.562;2022-09-23T00:15:21;6.00;99.90
18690;DHT22;9782;52.930;15.562;2022-09-23T00:17:49;6.10;99.90
18690;DHT22;9782;52.930;15.562;2022-09-23T00:20:18;5.90;42.90
18690;DHT22;9782;52.930;15.562;2022-09-23T00:22:46;5.80;1.00
18690;DHT22;9782;52.930;15.562;2022-09-23T00:25:13;5.80;1.00
18690;DHT22;9782;52.930;15.562;2022-09-23T00:27:40;5.70;1.00
18690;DHT22;9782;52.930;15.562;2022-09-23T00:30:09;5.70;1.00
18690;DHT22;9782;52.930;15.562;2022-09-23T00:32:36;5.60;1.00
18690;DHT22;9782;52.930;15.562;2022-09-23T00:35:05;5.60;1.00
18690;DHT22;9782;52.930;15.562;2022-09-23T00:37:34;5.60;1.00
18690;DHT22;9782;52.930;15.562;2022-09-23T00:40:02;5.60;1.00
18690;DHT22;9782;52.930;15.562;2022-09-23T00:42:29;6.10;99.90
18690;DHT22;9782;52.930;15.562;2022-09-23T00:44:58;5.50;1.00
18690;DHT22;9782;52.930;15.562;2022-09-23T00:47:30;6.40;1.00
18690;DHT22;9782;52.930;15.562;2022-09-23T00:50:02;5.50;1.00
18690;DHT22;9782;52.930;15.562;2022-09-23T00:52:31;5.40;1.00
18690;DHT22;9782;52.930;15.562;2022-09-23T00:55:03;5.40;1.00
18690;DHT22;9782;52.930;15.562;2022-09-23T00:57:31;5.40;1.00
18690;DHT22;9782;52.930;15.562;2022-09-23T01:00:00;5.40;1.00
18690;DHT22;9782;52.930;15.562;2022-09-23T01:04:57;5.40;57.10
18690;DHT22;9782;52.930;15.562;2022-09-23T01:07:24;5.30;1.00
18690;DHT22;9782;52.930;15.562;2022-09-23T01:09:52;5.30;1.00
18690;DHT22;9782;52.930;15.562;2022-09-23T01:12:33;5.30;1.00
18690;DHT22;9782;52.930;15.562;2022-09-23T01:15:09;5.30;1.00
18690;DHT22;9782;52.930;15.562;2022-09-23T01:17:42;5.50;1.00
18690;DHT22;9782;52.930;15.562;2022-09-23T01:20:45;5.20;1.00
18690;DHT22;9782;52.930;15.562;2022-09-23T01:26:36;5.20;1.00
18690;DHT22;9782;52.930;15.562;2022-09-23T01:32:13;5.10;1.00
18690;DHT22;9782;52.930;15.562;2022-09-23T01:34:47;5.10;1.00
18690;DHT22;9782;52.930;15.562;2022-09-23T01:37:22;5.10;1.00
18690;DHT22;9782;52.930;15.562;2022-09-23T01:39:56;5.00;1.00
18690;DHT22;9782;52.930;15.562;2022-09-23T01:42:29;5.10;1.00
18690;DHT22;9782;52.930;15.562;2022-09-23T01:45:03;5.00;1.00
18690;DHT22;9782;52.930;15.562;2022-09-23T01:47:37;5.00;1.00
18690;DHT22;9782;52.930;15.562;2022-09-23T01:50:11;5.00;1.00
18690;DHT22;9782;52.930;15.562;2022-09-23T01:52:57;5.00;1.00
18690;DHT22;9782;52.930;15.562;2022-09-23T01:55:29;5.00;1.00
18690;DHT22;9782;52.930;15.562;2022-09-23T01:57:59;5.00;1.00
18690;DHT22;9782;52.930;15.562;2022-09-23T02:00:33;5.10;1.00
18690;DHT22;9782;52.930;15.562;2022-09-23T02:03:06;5.00;1.00
18690;DHT22;9782;52.930;15.562;2022-09-23T02:05:43;5.00;1.00
18690;DHT22;9782;52.930;15.562;2022-09-23T02:08:15;5.00;1.00
18690;DHT22;9782;52.930;15.562;2022-09-23T02:10:45;5.00;1.00
18690;DHT22;9782;52.930;15.562;2022-09-23T02:13:15;5.00;1.00
18690;DHT22;9782;52.930;15.562;2022-09-23T02:15:48;5.00;1.00
18690;DHT22;9782;52.930;15.562;2022-09-23T02:18:21;5.00;1.00
18690;DHT22;9782;52.930;15.562;2022-09-23T02:20:53;5.00;1.00
18690;DHT22;9782;52.930;15.562;2022-09-23T02:23:25;5.00;1.00
18690;DHT22;9782;52.930;15.562;2022-09-23T02:25:56;5.00;1.00
18690;DHT22;9782;52.930;15.562;2022-09-23T02:28:31;4.90;1.00
18690;DHT22;9782;52.930;15.562;2022-09-23T02:31:05;4.90;1.00
18690;DHT22;9782;52.930;15.562;2022-09-23T02:33:36;4.90;1.00
18690;DHT22;9782;52.930;15.562;2022-09-23T02:36:07;4.90;1.00
18690;DHT22;9782;52.930;15.562;2022-09-23T02:38:40;4.80;1.00
18690;DHT22;9782;52.930;15.562;2022-09-23T02:41:11;4.80;1.00
18690;DHT22;9782;52.930;15.562;2022-09-23T02:47:02;4.80;1.00
18690;DHT22;9782;52.930;15.562;2022-09-23T02:49:31;4.80;1.00
18690;DHT22;9782;52.930;15.562;2022-09-23T02:52:01;4.80;1.00
18690;DHT22;9782;52.930;15.562;2022-09-23T02:54:30;4.70;1.00
18690;DHT22;9782;52.930;15.562;2022-09-23T02:56:59;4.80;1.00
18690;DHT22;9782;52.930;15.562;2022-09-23T02:59:28;4.70;1.00
18690;DHT22;9782;52.930;15.562;2022-09-23T03:02:12;4.70;1.00
18690;DHT22;9782;52.930;15.562;2022-09-23T03:04:49;4.70;1.00
18690;DHT22;9782;52.930;15.562;2022-09-23T03:07:21;4.70;1.00
18690;DHT22;9782;52.930;15.562;2022-09-23T03:10:03;4.70;1.00
18690;DHT22;9782;52.930;15.562;2022-09-23T03:12:37;4.60;1.00
18690;DHT22;9782;52.930;15.562;2022-09-23T03:15:19;4.60;1.00
18690;DHT22;9782;52.930;15.562;2022-09-23T03:17:54;4.60;1.00
18690;DHT22;9782;52.930;15.562;2022-09-23T03:20:28;4.60;1.00
18690;DHT22;9782;52.930;15.562;2022-09-23T03:23:00;4.60;1.00
18690;DHT22;9782;52.930;15.562;2022-09-23T03:25:30;4.60;1.00
18690;DHT22;9782;52.930;15.562;2022-09-23T03:28:00;4.60;1.00
18690;DHT22;9782;52.930;15.562;2022-09-23T03:30:28;4.60;1.00
18690;DHT22;9782;52.930;15.562;2022-09-23T03:32:57;4.50;1.00
18690;DHT22;9782;52.930;15.562;2022-09-23T03:35:29;4.50;1.00
18690;DHT22;9782;52.930;15.562;2022-09-23T03:38:02;4.40;1.00
18690;DHT22;9782;52.930;15.562;2022-09-23T03:40:34;4.40;1.00
18690;DHT22;9782;52.930;15.562;2022-09-23T03:43:09;4.40;1.00
18690;DHT22;9782;52.930;15.562;2022-09-23T03:45:38;4.40;1.00
18690;DHT22;9782;52.930;15.562;2022-09-23T03:48:07;4.30;1.00
18690;DHT22;9782;52.930;15.562;2022-09-23T03:50:35;4.40;1.00
18690;DHT22;9782;52.930;15.562;2022-09-23T03:53:03;4.30;1.00
18690;DHT22;9782;52.930;15.562;2022-09-23T03:55:31;4.20;1.00
18690;DHT22;9782;52.930;15.562;2022-09-23T03:57:59;4.20;1.00
18690;DHT22;9782;52.930;15.562;2022-09-23T04:00:27;4.20;1.00
18690;DHT22;9782;52.930;15.562;2022-09-23T04:02:54;4.10;1.00
18690;DHT22;9782;52.930;15.562;2022-09-23T04:05:21;4.00;1.00
18690;DHT22;9782;52.930;15.562;2022-09-23T04:07:50;4.00;1.00
18690;DHT22;9782;52.930;15.562;2022-09-23T04:10:17;4.00;1.00
18690;DHT22;9782;52.930;15.562;2022-09-23T04:12:44;3.90;1.00
18690;DHT22;9782;52.930;15.562;2022-09-23T04:15:11;3.90;1.00
18690;DHT22;9782;52.930;15.562;2022-09-23T04:17:38;3.90;1.00
18690;DHT22;9782;52.930;15.562;2022-09-23T04:20:07;3.90;1.00
18690;DHT22;9782;52.930;15.562;2022-09-23T04:22:34;3.90;1.00
18690;DHT22;9782;52.930;15.562;2022-09-23T04:25:05;3.80;1.00
18690;DHT22;9782;52.930;15.562;2022-09-23T04:27:32;3.80;1.00
18690;DHT22;9782;52.930;15.562;2022-09-23T04:29:59;3.80;1.00
18690;DHT22;9782;52.930;15.562;2022-09-23T04:32:26;3.70;1.00
18690;DHT22;9782;52.930;15.562;2022-09-23T04:34:53;3.70;1.00
18690;DHT22;9782;52.930;15.562;2022-09-23T04:37:20;3.70;1.00
18690;DHT22;9782;52.930;15.562;2022-09-23T04:39:47;3.60;1.00
18690;DHT22;9782;52.930;15.562;2022-09-23T04:42:15;3.60;1.00
18690;DHT22;9782;52.930;15.562;2022-09-23T04:44:42;3.60;1.00
18690;DHT22;9782;52.930;15.562;2022-09-23T04:47:09;3.60;1.00
18690;DHT22;9782;52.930;15.562;2022-09-23T04:49:38;3.70;1.00
18690;DHT22;9782;52.930;15.562;2022-09-23T04:52:20;3.70;1.00
18690;DHT22;9782;52.930;15.562;2022-09-23T04:54:47;3.70;5.50
18690;DHT22;9782;52.930;15.562;2022-09-23T04:57:16;3.70;6.20
18690;DHT22;9782;52.930;15.562;2022-09-23T04:59:44;3.80;13.80
18690;DHT22;9782;52.930;15.562;2022-09-23T05:02:12;3.90;22.30
18690;DHT22;9782;52.930;15.562;2022-09-23T05:04:39;4.00;45.20
18690;DHT22;9782;52.930;15.562;2022-09-23T05:07:07;4.10;84.40
18690;DHT22;9782;52.930;15.562;2022-09-23T05:09:35;4.10;99.90
18690;DHT22;9782;52.930;15.562;2022-09-23T05:12:02;4.10;59.80
18690;DHT22;9782;52.930;15.562;2022-09-23T05:14:30;4.10;44.60
18690;DHT22;9782;52.930;15.562;2022-09-23T05:16:57;4.20;52.40
18690;DHT22;9782;52.930;15.562;2022-09-23T05:19:24;4.30;28.90
18690;DHT22;9782;52.930;15.562;2022-09-23T05:21:51;4.40;33.00
18690;DHT22;9782;52.930;15.562;2022-09-23T05:24:18;4.40;45.90
18690;DHT22;9782;52.930;15.562;2022-09-23T05:26:49;4.50;46.80
18690;DHT22;9782;52.930;15.562;2022-09-23T05:29:16;4.60;67.90
18690;DHT22;9782;52.930;15.562;2022-09-23T05:31:44;4.70;99.90
18690;DHT22;9782;52.930;15.562;2022-09-23T05:34:11;4.80;99.90
18690;DHT22;9782;52.930;15.562;2022-09-23T05:36:38;4.90;99.90
18690;DHT22;9782;52.930;15.562;2022-09-23T05:39:05;5.10;99.90
18690;DHT22;9782;52.930;15.562;2022-09-23T05:41:46;5.80;1.00
18690;DHT22;9782;52.930;15.562;2022-09-23T05:44:13;7.30;1.00
18690;DHT22;9782;52.930;15.562;2022-09-23T05:46:40;8.70;99.90
18690;DHT22;9782;52.930;15.562;2022-09-23T05:49:08;10.20;99.90
18690;DHT22;9782;52.930;15.562;2022-09-23T05:51:36;11.40;99.90
18690;DHT22;9782;52.930;15.562;2022-09-23T05:54:03;12.60;1.00
18690;DHT22;9782;52.930;15.562;2022-09-23T05:56:32;13.80;1.00
18690;DHT22;9782;52.930;15.562;2022-09-23T05:59:21;14.90;1.00
18690;DHT22;9782;52.930;15.562;2022-09-23T06:01:59;16.00;99.90
18690;DHT22;9782;52.930;15.562;2022-09-23T06:04:27;17.10;99.90
18690;DHT22;9782;52.930;15.562;2022-09-23T06:06:55;18.00;72.20
18690;DHT22;9782;52.930;15.562;2022-09-23T06:09:22;18.60;1.00
18690;DHT22;9782;52.930;15.562;2022-09-23T06:11:49;19.20;1.00
18690;DHT22;9782;52.930;15.562;2022-09-23T06:14:16;20.00;1.00
18690;DHT22;9782;52.930;15.562;2022-09-23T06:16:43;20.80;1.00
18690;DHT22;9782;52.930;15.562;2022-09-23T06:19:10;21.60;1.00
18690;DHT22;9782;52.930;15.562;2022-09-23T06:21:39;22.30;1.00
18690;DHT22;9782;52.930;15.562;2022-09-23T06:24:07;22.90;1.00
18690;DHT22;9782;52.930;15.562;2022-09-23T06:26:35;23.70;1.00
18690;DHT22;9782;52.930;15.562;2022-09-23T06:29:07;24.20;1.00
18690;DHT22;9782;52.930;15.562;2022-09-23T06:31:34;24.60;1.00
18690;DHT22;9782;52.930;15.562;2022-09-23T06:34:01;25.00;1.00
18690;DHT22;9782;52.930;15.562;2022-09-23T06:36:28;25.50;1.00
18690;DHT22;9782;52.930;15.562;2022-09-23T06:38:57;25.90;1.00
18690;DHT22;9782;52.930;15.562;2022-09-23T06:41:23;26.30;1.00
18690;DHT22;9782;52.930;15.562;2022-09-23T06:43:50;26.70;1.00
18690;DHT22;9782;52.930;15.562;2022-09-23T06:46:17;26.90;1.00
18690;DHT22;9782;52.930;15.562;2022-09-23T06:48:45;27.10;1.00
18690;DHT22;9782;52.930;15.562;2022-09-23T06:52:53;27.50;1.00
18690;DHT22;9782;52.930;15.562;2022-09-23T06:54:47;28.10;1.00
18690;DHT22;9782;52.930;15.562;2022-09-23T06:57:14;28.50;1.00
18690;DHT22;9782;52.930;15.562;2022-09-23T06:59:41;28.90;1.00
18690;DHT22;9782;52.930;15.562;2022-09-23T07:02:11;29.40;1.00
18690;DHT22;9782;52.930;15.562;2022-09-23T07:04:38;29.90;1.00
18690;DHT22;9782;52.930;15.562;2022-09-23T07:07:39;30.30;1.00
18690;DHT22;9782;52.930;15.562;2022-09-23T07:10:32;30.50;1.00
18690;DHT22;9782;52.930;15.562;2022-09-23T07:12:59;30.60;1.00
18690;DHT22;9782;52.930;15.562;2022-09-23T07:15:26;30.60;1.00
18690;DHT22;9782;52.930;15.562;2022-09-23T07:17:53;30.50;1.00
18690;DHT22;9782;52.930;15.562;2022-09-23T07:20:21;30.50;1.00
18690;DHT22;9782;52.930;15.562;2022-09-23T07:22:48;30.40;1.00
18690;DHT22;9782;52.930;15.562;2022-09-23T07:25:16;30.40;1.00
18690;DHT22;9782;52.930;15.562;2022-09-23T07:27:45;30.40;1.00
18690;DHT22;9782;52.930;15.562;2022-09-23T07:30:12;30.30;1.00
18690;DHT22;9782;52.930;15.562;2022-09-23T07:32:40;30.30;1.00
18690;DHT22;9782;52.930;15.562;2022-09-23T07:35:40;30.30;1.00
18690;DHT22;9782;52.930;15.562;2022-09-23T07:38:21;30.30;1.00
18690;DHT22;9782;52.930;15.562;2022-09-23T07:40:50;30.10;1.00
18690;DHT22;9782;52.930;15.562;2022-09-23T07:43:19;30.10;1.00
18690;DHT22;9782;52.930;15.562;2022-09-23T07:45:46;30.00;1.00
18690;DHT22;9782;52.930;15.562;2022-09-23T07:48:13;30.10;1.00
18690;DHT22;9782;52.930;15.562;2022-09-23T07:50:40;30.20;1.00
18690;DHT22;9782;52.930;15.562;2022-09-23T07:53:08;30.20;1.00
18690;DHT22;9782;52.930;15.562;2022-09-23T07:55:35;30.10;1.00
18690;DHT22;9782;52.930;15.562;2022-09-23T07:58:02;30.20;1.00
18690;DHT22;9782;52.930;15.562;2022-09-23T08:00:31;30.30;1.00
18690;DHT22;9782;52.930;15.562;2022-09-23T08:02:58;30.30;1.00
18690;DHT22;9782;52.930;15.562;2022-09-23T08:05:26;30.30;1.00
18690;DHT22;9782;52.930;15.562;2022-09-23T08:07:53;30.30;1.00
18690;DHT22;9782;52.930;15.562;2022-09-23T08:10:20;30.30;1.00
18690;DHT22;9782;52.930;15.562;2022-09-23T08:12:47;30.30;1.00
18690;DHT22;9782;52.930;15.562;2022-09-23T08:15:14;30.30;1.00
18690;DHT22;9782;52.930;15.562;2022-09-23T08:17:44;30.50;1.00
18690;DHT22;9782;52.930;15.562;2022-09-23T08:20:11;30.50;1.00
18690;DHT22;9782;52.930;15.562;2022-09-23T08:22:58;30.40;1.00
18690;DHT22;9782;52.930;15.562;2022-09-23T08:25:25;30.50;1.00
18690;DHT22;9782;52.930;15.562;2022-09-23T08:27:52;30.70;1.00
18690;DHT22;9782;52.930;15.562;2022-09-23T08:30:19;30.80;1.00
18690;DHT22;9782;52.930;15.562;2022-09-23T08:32:50;30.80;1.00
18690;DHT22;9782;52.930;15.562;2022-09-23T08:35:17;30.90;1.00
18690;DHT22;9782;52.930;15.562;2022-09-23T08:37:45;30.90;1.00
18690;DHT22;9782;52.930;15.562;2022-09-23T08:40:12;30.80;1.00
18690;DHT22;9782;52.930;15.562;2022-09-23T08:42:40;30.50;1.00
18690;DHT22;9782;52.930;15.562;2022-09-23T08:45:13;30.40;1.00
18690;DHT22;9782;52.930;15.562;2022-09-23T08:47:45;30.30;1.00
18690;DHT22;9782;52.930;15.562;2022-09-23T08:50:18;30.20;1.00
18690;DHT22;9782;52.930;15.562;2022-09-23T08:52:49;30.30;1.00
18690;DHT22;9782;52.930;15.562;2022-09-23T08:55:18;30.10;1.00
18690;DHT22;9782;52.930;15.562;2022-09-23T08:58:05;29.90;1.00
18690;DHT22;9782;52.930;15.562;2022-09-23T09:00:38;29.50;1.00
18690;DHT22;9782;52.930;15.562;2022-09-23T09:03:18;29.00;1.00
18690;DHT22;9782;52.930;15.562;2022-09-23T09:05:49;29.00;1.00
18690;DHT22;9782;52.930;15.562;2022-09-23T09:08:22;28.90;1.00
18690;DHT22;9782;52.930;15.562;2022-09-23T09:10:53;28.80;1.00
18690;DHT22;9782;52.930;15.562;2022-09-23T09:13:27;28.60;1.00
18690;DHT22;9782;52.930;15.562;2022-09-23T09:16:09;28.60;1.00
18690;DHT22;9782;52.930;15.562;2022-09-23T09:18:44;28.60;1.00
18690;DHT22;9782;52.930;15.562;2022-09-23T09:21:15;28.50;1.00
18690;DHT22;9782;52.930;15.562;2022-09-23T09:23:46;28.30;1.00
18690;DHT22;9782;52.930;15.562;2022-09-23T09:26:19;28.20;1.00
18690;DHT22;9782;52.930;15.562;2022-09-23T09:28:49;28.00;1.00
18690;DHT22;9782;52.930;15.562;2022-09-23T09:31:23;27.90;1.00
18690;DHT22;9782;52.930;15.562;2022-09-23T09:33:54;27.70;1.00
18690;DHT22;9782;52.930;15.562;2022-09-23T09:36:31;27.50;1.00
18690;DHT22;9782;52.930;15.562;2022-09-23T09:39:01;27.40;1.00
18690;DHT22;9782;52.930;15.562;2022-09-23T09:41:30;27.10;1.00
18690;DHT22;9782;52.930;15.562;2022-09-23T09:43:59;26.80;1.00
18690;DHT22;9782;52.930;15.562;2022-09-23T09:46:41;26.40;1.00
18690;DHT22;9782;52.930;15.562;2022-09-23T09:49:19;25.90;1.00
18690;DHT22;9782;52.930;15.562;2022-09-23T09:52:10;25.50;1.00
18690;DHT22;9782;52.930;15.562;2022-09-23T09:54:38;25.00;1.00
18690;DHT22;9782;52.930;15.562;2022-09-23T09:57:08;24.40;1.00
18690;DHT22;9782;52.930;15.562;2022-09-23T09:59:38;24.00;1.00
18690;DHT22;9782;52.930;15.562;2022-09-23T10:02:24;23.60;1.00
18690;DHT22;9782;52.930;15.562;2022-09-23T10:04:58;23.50;1.00
18690;DHT22;9782;52.930;15.562;2022-09-23T10:07:29;23.40;1.00
18690;DHT22;9782;52.930;15.562;2022-09-23T10:09:56;23.00;1.00
18690;DHT22;9782;52.930;15.562;2022-09-23T10:12:26;22.80;1.00
18690;DHT22;9782;52.930;15.562;2022-09-23T10:14:55;22.80;1.00
18690;DHT22;9782;52.930;15.562;2022-09-23T10:17:26;22.60;1.00
18690;DHT22;9782;52.930;15.562;2022-09-23T10:19:57;22.30;1.00
18690;DHT22;9782;52.930;15.562;2022-09-23T10:22:30;22.10;1.00
18690;DHT22;9782;52.930;15.562;2022-09-23T10:25:01;21.80;1.00
18690;DHT22;9782;52.930;15.562;2022-09-23T10:27:31;21.70;1.00
18690;DHT22;9782;52.930;15.562;2022-09-23T10:30:01;21.60;1.00
18690;DHT22;9782;52.930;15.562;2022-09-23T10:32:31;21.40;1.00
18690;DHT22;9782;52.930;15.562;2022-09-23T10:35:10;21.40;1.00
18690;DHT22;9782;52.930;15.562;2022-09-23T10:37:42;21.30;1.00
18690;DHT22;9782;52.930;15.562;2022-09-23T10:40:18;21.30;1.00
18690;DHT22;9782;52.930;15.562;2022-09-23T10:43:21;21.20;1.00
18690;DHT22;9782;52.930;15.562;2022-09-23T10:46:08;21.20;1.00
18690;DHT22;9782;52.930;15.562;2022-09-23T10:49:18;21.30;1.00
18690;DHT22;9782;52.930;15.562;2022-09-23T10:51:54;21.20;1.00
18690;DHT22;9782;52.930;15.562;2022-09-23T10:54:31;21.10;1.00
18690;DHT22;9782;52.930;15.562;2022-09-23T10:57:08;21.00;1.00
18690;DHT22;9782;52.930;15.562;2022-09-23T10:59:57;20.90;1.00
18690;DHT22;9782;52.930;15.562;2022-09-23T11:02:40;20.90;1.00
18690;DHT22;9782;52.930;15.562;2022-09-23T11:05:22;20.90;1.00
18690;DHT22;9782;52.930;15.562;2022-09-23T11:08:01;20.80;1.00
18690;DHT22;9782;52.930;15.562;2022-09-23T11:10:47;20.80;1.00
18690;DHT22;9782;52.930;15.562;2022-09-23T11:13:29;20.80;1.00
18690;DHT22;9782;52.930;15.562;2022-09-23T11:16:04;20.70;1.00
18690;DHT22;9782;52.930;15.562;2022-09-23T11:18:55;20.70;1.00
18690;DHT22;9782;52.930;15.562;2022-09-23T11:21:44;20.60;1.00
18690;DHT22;9782;52.930;15.562;2022-09-23T11:24:23;20.60;1.00
18690;DHT22;9782;52.930;15.562;2022-09-23T11:27:06;20.50;1.00
18690;DHT22;9782;52.930;15.562;2022-09-23T11:29:54;20.60;1.00
18690;DHT22;9782;52.930;15.562;2022-09-23T11:32:41;20.60;1.00
18690;DHT22;9782;52.930;15.562;2022-09-23T11:35:18;20.40;1.00
18690;DHT22;9782;52.930;15.562;2022-09-23T11:37:49;20.30;1.00
18690;DHT22;9782;52.930;15.562;2022-09-23T11:40:20;20.30;1.00
18690;DHT22;9782;52.930;15.562;2022-09-23T11:42:53;20.20;1.00
18690;DHT22;9782;52.930;15.562;2022-09-23T11:45:25;20.10;1.00
18690;DHT22;9782;52.930;15.562;2022-09-23T11:47:57;20.10;1.00
18690;DHT22;9782;52.930;15.562;2022-09-23T11:50:31;20.10;1.00
18690;DHT22;9782;52.930;15.562;2022-09-23T11:53:03;20.20;1.00
18690;DHT22;9782;52.930;15.562;2022-09-23T11:55:34;20.10;1.00
18690;DHT22;9782;52.930;15.562;2022-09-23T11:58:13;20.30;1.00
18690;DHT22;9782;52.930;15.562;2022-09-23T12:00:47;20.30;1.00
18690;DHT22;9782;52.930;15.562;2022-09-23T12:03:18;20.50;1.00
18690;DHT22;9782;52.930;15.562;2022-09-23T12:05:56;20.60;1.00
18690;DHT22;9782;52.930;15.562;2022-09-23T12:08:27;20.70;1.00
18690;DHT22;9782;52.930;15.562;2022-09-23T12:11:00;20.70;1.00
18690;DHT22;9782;52.930;15.562;2022-09-23T12:13:40;20.50;1.00
18690;DHT22;9782;52.930;15.562;2022-09-23T12:19:27;20.30;1.00
18690;DHT22;9782;52.930;15.562;2022-09-23T12:22:09;20.30;1.00
18690;DHT22;9782;52.930;15.562;2022-09-23T12:24:53;20.30;1.00
18690;DHT22;9782;52.930;15.562;2022-09-23T12:27:28;20.00;1.00
18690;DHT22;9782;52.930;15.562;2022-09-23T12:30:03;19.90;1.00
18690;DHT22;9782;52.930;15.562;2022-09-23T12:32:31;19.90;1.00
18690;DHT22;9782;52.930;15.562;2022-09-23T12:34:59;19.80;1.00
18690;DHT22;9782;52.930;15.562;2022-09-23T12:37:43;19.70;1.00
18690;DHT22;9782;52.930;15.562;2022-09-23T12:40:17;19.50;1.00
18690;DHT22;9782;52.930;15.562;2022-09-23T12:42:46;19.50;1.00
18690;DHT22;9782;52.930;15.562;2022-09-23T12:45:40;19.40;1.00
18690;DHT22;9782;52.930;15.562;2022-09-23T12:48:43;19.50;1.00
18690;DHT22;9782;52.930;15.562;2022-09-23T12:51:18;19.60;1.00
18690;DHT22;9782;52.930;15.562;2022-09-23T12:53:55;19.60;1.00
18690;DHT22;9782;52.930;15.562;2022-09-23T12:56:50;19.70;1.00
18690;DHT22;9782;52.930;15.562;2022-09-23T12:59:27;19.90;1.00
18690;DHT22;9782;52.930;15.562;2022-09-23T13:01:56;19.90;1.00
18690;DHT22;9782;52.930;15.562;2022-09-23T13:04:42;20.00;1.00
18690;DHT22;9782;52.930;15.562;2022-09-23T13:07:29;20.10;1.00
18690;DHT22;9782;52.930;15.562;2022-09-23T13:10:05;20.10;1.00
18690;DHT22;9782;52.930;15.562;2022-09-23T13:12:35;20.20;1.00
18690;DHT22;9782;52.930;15.562;2022-09-23T13:15:10;20.20;1.00
18690;DHT22;9782;52.930;15.562;2022-09-23T13:17:41;20.30;1.00
18690;DHT22;9782;52.930;15.562;2022-09-23T13:20:33;20.40;1.00
18690;DHT22;9782;52.930;15.562;2022-09-23T13:27:25;20.30;1.00
18690;DHT22;9782;52.930;15.562;2022-09-23T13:29:37;20.20;1.00
18690;DHT22;9782;52.930;15.562;2022-09-23T13:32:10;20.00;1.00
18690;DHT22;9782;52.930;15.562;2022-09-23T13:34:41;20.00;1.00
18690;DHT22;9782;52.930;15.562;2022-09-23T13:37:18;19.90;1.00
18690;DHT22;9782;52.930;15.562;2022-09-23T13:39:46;19.80;1.00
18690;DHT22;9782;52.930;15.562;2022-09-23T13:42:22;19.60;1.00
18690;DHT22;9782;52.930;15.562;2022-09-23T13:44:53;19.50;1.00
18690;DHT22;9782;52.930;15.562;2022-09-23T13:47:26;19.40;1.00
18690;DHT22;9782;52.930;15.562;2022-09-23T13:49:56;19.30;1.00
18690;DHT22;9782;52.930;15.562;2022-09-23T13:52:26;19.30;1.00
18690;DHT22;9782;52.930;15.562;2022-09-23T13:54:55;19.30;1.00
18690;DHT22;9782;52.930;15.562;2022-09-23T13:57:26;19.30;1.00
18690;DHT22;9782;52.930;15.562;2022-09-23T13:59:54;19.30;1.00
18690;DHT22;9782;52.930;15.562;2022-09-23T14:02:25;19.30;1.00
18690;DHT22;9782;52.930;15.562;2022-09-23T14:04:56;19.10;1.00
18690;DHT22;9782;52.930;15.562;2022-09-23T14:07:24;19.00;1.00
18690;DHT22;9782;52.930;15.562;2022-09-23T14:09:54;18.90;1.00
18690;DHT22;9782;52.930;15.562;2022-09-23T14:12:21;18.80;1.00
18690;DHT22;9782;52.930;15.562;2022-09-23T14:14:50;18.80;1.00
18690;DHT22;9782;52.930;15.562;2022-09-23T14:17:21;18.70;1.00
18690;DHT22;9782;52.930;15.562;2022-09-23T14:20:02;18.70;1.00
18690;DHT22;9782;52.930;15.562;2022-09-23T14:22:32;18.70;1.00
18690;DHT22;9782;52.930;15.562;2022-09-23T14:25:02;18.80;1.00
18690;DHT22;9782;52.930;15.562;2022-09-23T14:27:36;18.80;1.00
18690;DHT22;9782;52.930;15.562;2022-09-23T14:30:11;18.80;1.00
18690;DHT22;9782;52.930;15.562;2022-09-23T14:32:45;18.80;1.00
18690;DHT22;9782;52.930;15.562;2022-09-23T14:35:19;18.80;1.00
18690;DHT22;9782;52.930;15.562;2022-09-23T14:37:50;18.90;1.00
18690;DHT22;9782;52.930;15.562;2022-09-23T14:40:49;18.90;1.00
18690;DHT22;9782;52.930;15.562;2022-09-23T14:43:49;18.80;1.00
18690;DHT22;9782;52.930;15.562;2022-09-23T14:46:18;18.80;1.00
18690;DHT22;9782;52.930;15.562;2022-09-23T14:48:54;18.80;1.00
18690;DHT22;9782;52.930;15.562;2022-09-23T14:54:39;18.70;1.00
18690;DHT22;9782;52.930;15.562;2022-09-23T14:57:27;18.60;1.00
18690;DHT22;9782;52.930;15.562;2022-09-23T14:59:58;18.60;1.00
18690;DHT22;9782;52.930;15.562;2022-09-23T15:02:30;18.40;1.00
18690;DHT22;9782;52.930;15.562;2022-09-23T15:05:16;18.40;1.00
18690;DHT22;9782;52.930;15.562;2022-09-23T15:07:47;18.40;1.00
18690;DHT22;9782;52.930;15.562;2022-09-23T15:10:35;18.30;1.00
18690;DHT22;9782;52.930;15.562;2022-09-23T15:19:59;18.00;1.00
18690;DHT22;9782;52.930;15.562;2022-09-23T15:22:42;17.90;1.00
18690;DHT22;9782;52.930;15.562;2022-09-23T15:25:16;17.70;1.00
18690;DHT22;9782;52.930;15.562;2022-09-23T15:27:55;17.60;1.00
18690;DHT22;9782;52.930;15.562;2022-09-23T15:30:23;17.60;1.00
18690;DHT22;9782;52.930;15.562;2022-09-23T15:32:50;17.60;1.00
18690;DHT22;9782;52.930;15.562;2022-09-23T15:35:19;17.50;1.00
18690;DHT22;9782;52.930;15.562;2022-09-23T15:37:48;17.50;1.00
18690;DHT22;9782;52.930;15.562;2022-09-23T15:40:23;17.50;1.00
18690;DHT22;9782;52.930;15.562;2022-09-23T15:43:09;17.40;1.00
18690;DHT22;9782;52.930;15.562;2022-09-23T15:46:03;17.40;1.00
18690;DHT22;9782;52.930;15.562;2022-09-23T15:48:36;17.20;1.00
18690;DHT22;9782;52.930;15.562;2022-09-23T15:51:06;17.20;1.00
18690;DHT22;9782;52.930;15.562;2022-09-23T15:53:35;17.10;1.00
18690;DHT22;9782;52.930;15.562;2022-09-23T15:56:05;17.00;1.00
18690;DHT22;9782;52.930;15.562;2022-09-23T15:58:33;16.90;1.00
18690;DHT22;9782;52.930;15.562;2022-09-23T16:01:01;16.80;1.00
18690;DHT22;9782;52.930;15.562;2022-09-23T16:03:29;16.70;1.00
18690;DHT22;9782;52.930;15.562;2022-09-23T16:05:59;16.60;1.00
18690;DHT22;9782;52.930;15.562;2022-09-23T16:08:28;16.40;1.00
18690;DHT22;9782;52.930;15.562;2022-09-23T16:10:57;16.30;1.00
18690;DHT22;9782;52.930;15.562;2022-09-23T16:13:25;16.30;1.00
18690;DHT22;9782;52.930;15.562;2022-09-23T16:15:52;16.20;1.00
18690;DHT22;9782;52.930;15.562;2022-09-23T16:18:20;16.10;1.00
18690;DHT22;9782;52.930;15.562;2022-09-23T16:20:48;16.00;1.00
18690;DHT22;9782;52.930;15.562;2022-09-23T16:23:21;15.90;1.00
18690;DHT22;9782;52.930;15.562;2022-09-23T16:25:59;15.80;1.00
18690;DHT22;9782;52.930;15.562;2022-09-23T16:28:28;15.70;1.00
18690;DHT22;9782;52.930;15.562;2022-09-23T16:30:55;15.60;1.00
18690;DHT22;9782;52.930;15.562;2022-09-23T16:33:22;15.50;1.00
18690;DHT22;9782;52.930;15.562;2022-09-23T16:35:49;15.40;1.00
18690;DHT22;9782;52.930;15.562;2022-09-23T16:38:17;15.30;1.00
18690;DHT22;9782;52.930;15.562;2022-09-23T16:40:45;15.20;1.00
18690;DHT22;9782;52.930;15.562;2022-09-23T16:43:12;15.20;1.00
18690;DHT22;9782;52.930;15.562;2022-09-23T16:48:08;14.80;1.00
18690;DHT22;9782;52.930;15.562;2022-09-23T16:50:36;14.80;1.00
18690;DHT22;9782;52.930;15.562;2022-09-23T16:53:04;14.70;1.00
18690;DHT22;9782;52.930;15.562;2022-09-23T16:55:31;14.60;1.00